sensor_id;sensor_type;location;lat;lon;timestamp;temperature;humidity
16643;DHT22;8435;52.184;5.406;2023-01-10T00:00:30;9.00;99.90
16643;DHT22;8435;52.184;5.406;2023-01-10T00:02:59;8.90;99.90
16643;DHT22;8435;52.184;5.406;2023-01-10T00:05:27;8.90;99.90
16643;DHT22;8435;52.184;5.406;2023-01-10T00:07:53;8.90;99.90
16643;DHT22;8435;52.184;5.406;2023-01-10T00:10:20;8.90;99.90
16643;DHT22;8435;52.184;5.406;2023-01-10T00:12:49;8.90;99.90
16643;DHT22;8435;52.184;5.406;2023-01-10T00:15:34;8.90;99.90
16643;DHT22;8435;52.184;5.406;2023-01-10T00:18:04;8.90;99.90
16643;DHT22;8435;52.184;5.406;2023-01-10T00:20:31;8.90;99.90
16643;DHT22;8435;52.184;5.406;2023-01-10T00:22:58;9.00;99.90
16643;DHT22;8435;52.184;5.406;2023-01-10T00:25:25;9.00;99.90
16643;DHT22;8435;52.184;5.406;2023-01-10T00:27:53;9.00;99.90
16643;DHT22;8435;52.184;5.406;2023-01-10T00:30:23;9.00;99.90
16643;DHT22;8435;52.184;5.406;2023-01-10T00:32:50;9.10;99.90
16643;DHT22;8435;52.184;5.406;2023-01-10T00:35:17;9.10;99.90
16643;DHT22;8435;52.184;5.406;2023-01-10T00:37:44;9.10;99.90
16643;DHT22;8435;52.184;5.406;2023-01-10T00:40:11;9.10;99.90
16643;DHT22;8435;52.184;5.406;2023-01-10T00:42:40;9.10;99.90
16643;DHT22;8435;52.184;5.406;2023-01-10T00:45:26;9.10;99.90
16643;DHT22;8435;52.184;5.406;2023-01-10T00:47:53;9.10;99.90
16643;DHT22;8435;52.184;5.406;2023-01-10T00:50:20;9.10;99.90
16643;DHT22;8435;52.184;5.406;2023-01-10T00:52:46;9.10;99.90
16643;DHT22;8435;52.184;5.406;2023-01-10T00:55:17;9.10;99.90
16643;DHT22;8435;52.184;5.406;2023-01-10T00:57:44;9.10;99.90
16643;DHT22;8435;52.184;5.406;2023-01-10T01:00:12;9.20;99.90
16643;DHT22;8435;52.184;5.406;2023-01-10T01:02:40;9.20;99.90
16643;DHT22;8435;52.184;5.406;2023-01-10T01:05:07;9.20;99.90
16643;DHT22;8435;52.184;5.406;2023-01-10T01:07:35;9.20;99.90
16643;DHT22;8435;52.184;5.406;2023-01-10T01:10:02;9.20;99.90
16643;DHT22;8435;52.184;5.406;2023-01-10T01:12:46;9.20;99.90
16643;DHT22;8435;52.184;5.406;2023-01-10T01:15:13;9.10;99.90
16643;DHT22;8435;52.184;5.406;2023-01-10T01:17:41;9.20;99.90
16643;DHT22;8435;52.184;5.406;2023-01-10T01:20:09;9.20;99.90
16643;DHT22;8435;52.184;5.406;2023-01-10T01:22:36;9.20;99.90
16643;DHT22;8435;52.184;5.406;2023-01-10T01:25:03;9.20;99.90
16643;DHT22;8435;52.184;5.406;2023-01-10T01:27:30;9.10;99.90
16643;DHT22;8435;52.184;5.406;2023-01-10T01:29:57;9.20;99.90
16643;DHT22;8435;52.184;5.406;2023-01-10T01:32:24;9.20;99.90
16643;DHT22;8435;52.184;5.406;2023-01-10T01:34:52;9.10;99.90
16643;DHT22;8435;52.184;5.406;2023-01-10T01:37:19;9.20;99.90
16643;DHT22;8435;52.184;5.406;2023-01-10T01:39:45;9.20;99.90
16643;DHT22;8435;52.184;5.406;2023-01-10T01:42:20;9.20;99.90
16643;DHT22;8435;52.184;5.406;2023-01-10T01:47:56;9.20;99.90
16643;DHT22;8435;52.184;5.406;2023-01-10T01:50:27;9.20;99.90
16643;DHT22;8435;52.184;5.406;2023-01-10T01:52:57;9.30;99.90
16643;DHT22;8435;52.184;5.406;2023-01-10T01:55:26;9.30;99.90
16643;DHT22;8435;52.184;5.406;2023-01-10T01:57:57;9.30;99.90
16643;DHT22;8435;52.184;5.406;2023-01-10T02:00:34;9.30;99.90
16643;DHT22;8435;52.184;5.406;2023-01-10T02:03:01;9.30;99.90
16643;DHT22;8435;52.184;5.406;2023-01-10T02:05:30;9.30;99.90
16643;DHT22;8435;52.184;5.406;2023-01-10T02:08:01;9.30;99.90
16643;DHT22;8435;52.184;5.406;2023-01-10T02:10:34;9.20;99.90
16643;DHT22;8435;52.184;5.406;2023-01-10T02:13:05;9.20;99.90
16643;DHT22;8435;52.184;5.406;2023-01-10T02:15:33;9.20;99.90
16643;DHT22;8435;52.184;5.406;2023-01-10T02:18:01;9.20;99.90
16643;DHT22;8435;52.184;5.406;2023-01-10T02:20:35;9.20;99.90
16643;DHT22;8435;52.184;5.406;2023-01-10T02:23:17;9.20;99.90
16643;DHT22;8435;52.184;5.406;2023-01-10T02:29:07;9.20;99.90
16643;DHT22;8435;52.184;5.406;2023-01-10T02:32:01;9.20;99.90
16643;DHT22;8435;52.184;5.406;2023-01-10T02:34:35;9.20;99.90
16643;DHT22;8435;52.184;5.406;2023-01-10T02:37:11;9.20;99.90
16643;DHT22;8435;52.184;5.406;2023-01-10T02:39:55;9.20;99.90
16643;DHT22;8435;52.184;5.406;2023-01-10T02:42:28;9.20;99.90
16643;DHT22;8435;52.184;5.406;2023-01-10T02:45:03;9.20;99.90
16643;DHT22;8435;52.184;5.406;2023-01-10T02:47:38;9.20;99.90
16643;DHT22;8435;52.184;5.406;2023-01-10T02:50:29;9.30;99.90
16643;DHT22;8435;52.184;5.406;2023-01-10T02:52:59;9.30;99.90
16643;DHT22;8435;52.184;5.406;2023-01-10T02:55:35;9.30;99.90
16643;DHT22;8435;52.184;5.406;2023-01-10T02:58:10;9.30;99.90
16643;DHT22;8435;52.184;5.406;2023-01-10T03:00:44;9.30;99.90
16643;DHT22;8435;52.184;5.406;2023-01-10T03:03:24;9.40;99.90
16643;DHT22;8435;52.184;5.406;2023-01-10T03:06:05;9.40;99.90
16643;DHT22;8435;52.184;5.406;2023-01-10T03:08:41;9.40;99.90
16643;DHT22;8435;52.184;5.406;2023-01-10T03:11:10;9.40;99.90
16643;DHT22;8435;52.184;5.406;2023-01-10T03:13:42;9.40;99.90
16643;DHT22;8435;52.184;5.406;2023-01-10T03:16:13;9.40;99.90
16643;DHT22;8435;52.184;5.406;2023-01-10T03:18:47;9.40;99.90
16643;DHT22;8435;52.184;5.406;2023-01-10T03:21:17;9.40;99.90
16643;DHT22;8435;52.184;5.406;2023-01-10T03:23:47;9.40;99.90
16643;DHT22;8435;52.184;5.406;2023-01-10T03:26:16;9.40;99.90
16643;DHT22;8435;52.184;5.406;2023-01-10T03:28:50;9.40;99.90
16643;DHT22;8435;52.184;5.406;2023-01-10T03:31:21;9.40;99.90
16643;DHT22;8435;52.184;5.406;2023-01-10T03:33:50;9.40;99.90
16643;DHT22;8435;52.184;5.406;2023-01-10T03:36:26;9.40;99.90
16643;DHT22;8435;52.184;5.406;2023-01-10T03:38:56;9.40;99.90
16643;DHT22;8435;52.184;5.406;2023-01-10T03:41:32;9.40;99.90
16643;DHT22;8435;52.184;5.406;2023-01-10T03:44:11;9.40;99.90
16643;DHT22;8435;52.184;5.406;2023-01-10T03:47:00;9.40;99.90
16643;DHT22;8435;52.184;5.406;2023-01-10T03:49:33;9.40;99.90
16643;DHT22;8435;52.184;5.406;2023-01-10T03:52:01;9.40;99.90
16643;DHT22;8435;52.184;5.406;2023-01-10T03:54:29;9.40;99.90
16643;DHT22;8435;52.184;5.406;2023-01-10T03:56:55;9.40;99.90
16643;DHT22;8435;52.184;5.406;2023-01-10T03:59:27;9.50;99.90
16643;DHT22;8435;52.184;5.406;2023-01-10T04:01:54;9.40;99.90
16643;DHT22;8435;52.184;5.406;2023-01-10T04:04:21;9.50;99.90
16643;DHT22;8435;52.184;5.406;2023-01-10T04:06:52;9.50;99.90
16643;DHT22;8435;52.184;5.406;2023-01-10T04:09:19;9.50;99.90
16643;DHT22;8435;52.184;5.406;2023-01-10T04:11:46;9.50;99.90
16643;DHT22;8435;52.184;5.406;2023-01-10T04:14:12;9.50;99.90
16643;DHT22;8435;52.184;5.406;2023-01-10T04:16:39;9.40;99.90
16643;DHT22;8435;52.184;5.406;2023-01-10T04:19:08;9.50;99.90
16643;DHT22;8435;52.184;5.406;2023-01-10T04:21:36;9.50;99.90
16643;DHT22;8435;52.184;5.406;2023-01-10T04:24:04;9.50;99.90
16643;DHT22;8435;52.184;5.406;2023-01-10T04:26:31;9.50;99.90
16643;DHT22;8435;52.184;5.406;2023-01-10T04:29:01;9.50;99.90
16643;DHT22;8435;52.184;5.406;2023-01-10T04:31:27;9.50;99.90
16643;DHT22;8435;52.184;5.406;2023-01-10T04:33:54;9.60;99.90
16643;DHT22;8435;52.184;5.406;2023-01-10T04:36:21;9.50;99.90
16643;DHT22;8435;52.184;5.406;2023-01-10T04:38:47;9.60;99.90
16643;DHT22;8435;52.184;5.406;2023-01-10T04:41:16;9.60;99.90
16643;DHT22;8435;52.184;5.406;2023-01-10T04:43:42;9.50;99.90
16643;DHT22;8435;52.184;5.406;2023-01-10T04:46:09;9.50;99.90
16643;DHT22;8435;52.184;5.406;2023-01-10T04:48:36;9.50;99.90
16643;DHT22;8435;52.184;5.406;2023-01-10T04:51:03;9.50;99.90
16643;DHT22;8435;52.184;5.406;2023-01-10T04:53:30;9.50;99.90
16643;DHT22;8435;52.184;5.406;2023-01-10T04:56:01;9.50;99.90
16643;DHT22;8435;52.184;5.406;2023-01-10T04:58:31;9.50;99.90
16643;DHT22;8435;52.184;5.406;2023-01-10T05:00:58;9.60;99.90
16643;DHT22;8435;52.184;5.406;2023-01-10T05:03:25;9.50;99.90
16643;DHT22;8435;52.184;5.406;2023-01-10T05:05:57;9.50;99.90
16643;DHT22;8435;52.184;5.406;2023-01-10T05:08:24;9.50;99.90
16643;DHT22;8435;52.184;5.406;2023-01-10T05:10:50;9.50;99.90
16643;DHT22;8435;52.184;5.406;2023-01-10T05:13:17;9.50;99.90
16643;DHT22;8435;52.184;5.406;2023-01-10T05:15:45;9.50;99.90
16643;DHT22;8435;52.184;5.406;2023-01-10T05:18:12;9.50;99.90
16643;DHT22;8435;52.184;5.406;2023-01-10T05:20:39;9.50;99.90
16643;DHT22;8435;52.184;5.406;2023-01-10T05:23:05;9.50;99.90
16643;DHT22;8435;52.184;5.406;2023-01-10T05:25:32;9.50;99.90
16643;DHT22;8435;52.184;5.406;2023-01-10T05:27:59;9.50;99.90
16643;DHT22;8435;52.184;5.406;2023-01-10T05:30:26;9.40;99.90
16643;DHT22;8435;52.184;5.406;2023-01-10T05:32:54;9.40;99.90
16643;DHT22;8435;52.184;5.406;2023-01-10T05:35:21;9.40;99.90
16643;DHT22;8435;52.184;5.406;2023-01-10T05:37:47;9.30;99.90
16643;DHT22;8435;52.184;5.406;2023-01-10T05:40:14;9.30;99.90
16643;DHT22;8435;52.184;5.406;2023-01-10T05:42:41;9.20;99.90
16643;DHT22;8435;52.184;5.406;2023-01-10T05:45:08;9.20;99.90
16643;DHT22;8435;52.184;5.406;2023-01-10T05:47:35;9.10;99.90
16643;DHT22;8435;52.184;5.406;2023-01-10T05:50:04;9.10;99.90
16643;DHT22;8435;52.184;5.406;2023-01-10T05:52:31;9.00;99.90
16643;DHT22;8435;52.184;5.406;2023-01-10T05:54:58;9.00;99.90
16643;DHT22;8435;52.184;5.406;2023-01-10T05:57:25;8.90;99.90
16643;DHT22;8435;52.184;5.406;2023-01-10T05:59:51;8.90;99.90
16643;DHT22;8435;52.184;5.406;2023-01-10T06:02:18;8.90;99.90
16643;DHT22;8435;52.184;5.406;2023-01-10T06:04:45;8.80;99.90
16643;DHT22;8435;52.184;5.406;2023-01-10T06:07:13;8.80;99.90
16643;DHT22;8435;52.184;5.406;2023-01-10T06:09:40;8.80;99.90
16643;DHT22;8435;52.184;5.406;2023-01-10T06:12:07;8.80;99.90
16643;DHT22;8435;52.184;5.406;2023-01-10T06:14:33;8.80;99.90
16643;DHT22;8435;52.184;5.406;2023-01-10T06:17:00;8.80;99.90
16643;DHT22;8435;52.184;5.406;2023-01-10T06:19:27;8.80;99.90
16643;DHT22;8435;52.184;5.406;2023-01-10T06:21:53;8.80;99.90
16643;DHT22;8435;52.184;5.406;2023-01-10T06:24:22;8.80;99.90
16643;DHT22;8435;52.184;5.406;2023-01-10T06:26:48;8.80;99.90
16643;DHT22;8435;52.184;5.406;2023-01-10T06:29:15;8.80;99.90
16643;DHT22;8435;52.184;5.406;2023-01-10T06:31:42;8.80;99.90
16643;DHT22;8435;52.184;5.406;2023-01-10T06:34:08;8.80;99.90
16643;DHT22;8435;52.184;5.406;2023-01-10T06:36:35;8.90;99.90
16643;DHT22;8435;52.184;5.406;2023-01-10T06:39:02;8.90;99.90
16643;DHT22;8435;52.184;5.406;2023-01-10T06:41:30;8.90;99.90
16643;DHT22;8435;52.184;5.406;2023-01-10T06:43:57;8.90;99.90
16643;DHT22;8435;52.184;5.406;2023-01-10T06:46:24;9.00;99.90
16643;DHT22;8435;52.184;5.406;2023-01-10T06:48:51;9.00;99.90
16643;DHT22;8435;52.184;5.406;2023-01-10T06:51:18;9.00;99.90
16643;DHT22;8435;52.184;5.406;2023-01-10T06:53:44;9.00;99.90
16643;DHT22;8435;52.184;5.406;2023-01-10T06:56:11;9.10;99.90
16643;DHT22;8435;52.184;5.406;2023-01-10T06:58:39;9.10;99.90
16643;DHT22;8435;52.184;5.406;2023-01-10T07:01:06;9.10;99.90
16643;DHT22;8435;52.184;5.406;2023-01-10T07:03:37;9.10;99.90
16643;DHT22;8435;52.184;5.406;2023-01-10T07:06:06;9.20;99.90
16643;DHT22;8435;52.184;5.406;2023-01-10T07:08:36;9.20;99.90
16643;DHT22;8435;52.184;5.406;2023-01-10T07:11:06;9.20;99.90
16643;DHT22;8435;52.184;5.406;2023-01-10T07:13:33;9.20;99.90
16643;DHT22;8435;52.184;5.406;2023-01-10T07:16:08;9.20;99.90
16643;DHT22;8435;52.184;5.406;2023-01-10T07:18:36;9.20;99.90
16643;DHT22;8435;52.184;5.406;2023-01-10T07:21:04;9.30;99.90
16643;DHT22;8435;52.184;5.406;2023-01-10T07:23:31;9.30;99.90
16643;DHT22;8435;52.184;5.406;2023-01-10T07:26:01;9.30;99.90
16643;DHT22;8435;52.184;5.406;2023-01-10T07:28:28;9.30;99.90
16643;DHT22;8435;52.184;5.406;2023-01-10T07:30:58;9.30;99.90
16643;DHT22;8435;52.184;5.406;2023-01-10T07:33:26;9.30;99.90
16643;DHT22;8435;52.184;5.406;2023-01-10T07:35:53;9.30;99.90
16643;DHT22;8435;52.184;5.406;2023-01-10T07:38:20;9.40;99.90
16643;DHT22;8435;52.184;5.406;2023-01-10T07:40:46;9.40;99.90
16643;DHT22;8435;52.184;5.406;2023-01-10T07:43:15;9.40;99.90
16643;DHT22;8435;52.184;5.406;2023-01-10T07:45:42;9.40;99.90
16643;DHT22;8435;52.184;5.406;2023-01-10T07:48:09;9.40;99.90
16643;DHT22;8435;52.184;5.406;2023-01-10T07:50:37;9.40;99.90
16643;DHT22;8435;52.184;5.406;2023-01-10T07:53:06;9.40;99.90
16643;DHT22;8435;52.184;5.406;2023-01-10T07:55:34;9.40;99.90
16643;DHT22;8435;52.184;5.406;2023-01-10T07:58:03;9.40;99.90
16643;DHT22;8435;52.184;5.406;2023-01-10T08:00:32;9.50;99.90
16643;DHT22;8435;52.184;5.406;2023-01-10T08:02:59;9.40;99.90
16643;DHT22;8435;52.184;5.406;2023-01-10T08:05:26;9.50;99.90
16643;DHT22;8435;52.184;5.406;2023-01-10T08:07:54;9.50;99.90
16643;DHT22;8435;52.184;5.406;2023-01-10T08:10:24;9.50;99.90
16643;DHT22;8435;52.184;5.406;2023-01-10T08:12:51;9.50;99.90
16643;DHT22;8435;52.184;5.406;2023-01-10T08:15:21;9.50;99.90
16643;DHT22;8435;52.184;5.406;2023-01-10T08:17:48;9.50;99.90
16643;DHT22;8435;52.184;5.406;2023-01-10T08:20:17;9.50;99.90
16643;DHT22;8435;52.184;5.406;2023-01-10T08:22:43;9.50;99.90
16643;DHT22;8435;52.184;5.406;2023-01-10T08:25:11;9.40;99.90
16643;DHT22;8435;52.184;5.406;2023-01-10T08:27:38;9.30;99.90
16643;DHT22;8435;52.184;5.406;2023-01-10T08:30:06;9.40;99.90
16643;DHT22;8435;52.184;5.406;2023-01-10T08:32:33;9.40;99.90
16643;DHT22;8435;52.184;5.406;2023-01-10T08:35:00;9.40;99.90
16643;DHT22;8435;52.184;5.406;2023-01-10T08:37:28;9.40;99.90
16643;DHT22;8435;52.184;5.406;2023-01-10T08:39:55;9.40;99.90
16643;DHT22;8435;52.184;5.406;2023-01-10T08:42:23;9.40;99.90
16643;DHT22;8435;52.184;5.406;2023-01-10T08:44:50;9.40;99.90
16643;DHT22;8435;52.184;5.406;2023-01-10T08:47:17;9.40;99.90
16643;DHT22;8435;52.184;5.406;2023-01-10T08:49:44;9.40;99.90
16643;DHT22;8435;52.184;5.406;2023-01-10T08:52:11;9.40;99.90
16643;DHT22;8435;52.184;5.406;2023-01-10T08:54:38;9.30;99.90
16643;DHT22;8435;52.184;5.406;2023-01-10T08:57:05;9.40;99.90
16643;DHT22;8435;52.184;5.406;2023-01-10T08:59:36;9.30;99.90
16643;DHT22;8435;52.184;5.406;2023-01-10T09:02:03;9.30;99.90
16643;DHT22;8435;52.184;5.406;2023-01-10T09:04:30;9.30;99.90
16643;DHT22;8435;52.184;5.406;2023-01-10T09:06:59;9.30;99.90
16643;DHT22;8435;52.184;5.406;2023-01-10T09:09:26;9.30;99.90
16643;DHT22;8435;52.184;5.406;2023-01-10T09:11:54;9.20;99.90
16643;DHT22;8435;52.184;5.406;2023-01-10T09:14:24;9.20;99.90
16643;DHT22;8435;52.184;5.406;2023-01-10T09:16:52;9.20;99.90
16643;DHT22;8435;52.184;5.406;2023-01-10T09:19:19;9.20;99.90
16643;DHT22;8435;52.184;5.406;2023-01-10T09:21:45;9.20;99.90
16643;DHT22;8435;52.184;5.406;2023-01-10T09:24:12;9.20;99.90
16643;DHT22;8435;52.184;5.406;2023-01-10T09:26:39;9.20;99.90
16643;DHT22;8435;52.184;5.406;2023-01-10T09:29:06;9.20;99.90
16643;DHT22;8435;52.184;5.406;2023-01-10T09:31:32;9.20;99.90
16643;DHT22;8435;52.184;5.406;2023-01-10T09:34:01;9.20;99.90
16643;DHT22;8435;52.184;5.406;2023-01-10T09:36:27;9.30;99.90
16643;DHT22;8435;52.184;5.406;2023-01-10T09:38:54;9.30;99.90
16643;DHT22;8435;52.184;5.406;2023-01-10T09:41:59;9.30;99.90
16643;DHT22;8435;52.184;5.406;2023-01-10T09:44:41;9.30;99.90
16643;DHT22;8435;52.184;5.406;2023-01-10T09:47:16;9.30;99.90
16643;DHT22;8435;52.184;5.406;2023-01-10T09:49:49;9.30;99.90
16643;DHT22;8435;52.184;5.406;2023-01-10T09:52:22;9.30;99.90
16643;DHT22;8435;52.184;5.406;2023-01-10T09:54:51;9.30;99.90
16643;DHT22;8435;52.184;5.406;2023-01-10T09:57:21;9.30;99.90
16643;DHT22;8435;52.184;5.406;2023-01-10T09:59:49;9.30;99.90
16643;DHT22;8435;52.184;5.406;2023-01-10T10:02:24;9.40;99.90
16643;DHT22;8435;52.184;5.406;2023-01-10T10:05:03;9.40;99.90
16643;DHT22;8435;52.184;5.406;2023-01-10T10:07:33;9.40;99.90
16643;DHT22;8435;52.184;5.406;2023-01-10T10:10:00;9.40;99.90
16643;DHT22;8435;52.184;5.406;2023-01-10T10:12:33;9.40;99.90
16643;DHT22;8435;52.184;5.406;2023-01-10T10:15:14;9.40;99.90
16643;DHT22;8435;52.184;5.406;2023-01-10T10:17:48;9.40;99.90
16643;DHT22;8435;52.184;5.406;2023-01-10T10:20:33;9.40;99.90
16643;DHT22;8435;52.184;5.406;2023-01-10T10:23:19;9.40;99.90
16643;DHT22;8435;52.184;5.406;2023-01-10T10:25:55;9.40;99.90
16643;DHT22;8435;52.184;5.406;2023-01-10T10:31:58;9.40;99.90
16643;DHT22;8435;52.184;5.406;2023-01-10T10:34:30;9.40;99.90
16643;DHT22;8435;52.184;5.406;2023-01-10T10:37:09;9.40;99.90
16643;DHT22;8435;52.184;5.406;2023-01-10T10:39:41;9.40;99.90
16643;DHT22;8435;52.184;5.406;2023-01-10T10:42:17;9.40;99.90
16643;DHT22;8435;52.184;5.406;2023-01-10T10:44:50;9.40;99.90
16643;DHT22;8435;52.184;5.406;2023-01-10T10:47:31;9.40;99.90
16643;DHT22;8435;52.184;5.406;2023-01-10T10:50:05;9.40;99.90
16643;DHT22;8435;52.184;5.406;2023-01-10T10:52:35;9.40;99.90
16643;DHT22;8435;52.184;5.406;2023-01-10T10:55:04;9.40;99.90
16643;DHT22;8435;52.184;5.406;2023-01-10T10:57:33;9.40;99.90
16643;DHT22;8435;52.184;5.406;2023-01-10T11:00:04;9.50;99.90
16643;DHT22;8435;52.184;5.406;2023-01-10T11:02:37;9.40;99.90
16643;DHT22;8435;52.184;5.406;2023-01-10T11:05:12;9.40;99.90
16643;DHT22;8435;52.184;5.406;2023-01-10T11:07:40;9.40;99.90
16643;DHT22;8435;52.184;5.406;2023-01-10T11:10:13;9.40;99.90
16643;DHT22;8435;52.184;5.406;2023-01-10T11:13:05;9.40;99.90
16643;DHT22;8435;52.184;5.406;2023-01-10T11:15:41;9.50;99.90
16643;DHT22;8435;52.184;5.406;2023-01-10T11:18:11;9.50;99.90
16643;DHT22;8435;52.184;5.406;2023-01-10T11:20:47;9.50;99.90
16643;DHT22;8435;52.184;5.406;2023-01-10T11:23:35;9.50;99.90
16643;DHT22;8435;52.184;5.406;2023-01-10T11:26:03;9.40;99.90
16643;DHT22;8435;52.184;5.406;2023-01-10T11:28:31;9.50;99.90
16643;DHT22;8435;52.184;5.406;2023-01-10T11:31:01;9.50;99.90
16643;DHT22;8435;52.184;5.406;2023-01-10T11:33:30;9.50;99.90
16643;DHT22;8435;52.184;5.406;2023-01-10T11:36:01;9.50;99.90
16643;DHT22;8435;52.184;5.406;2023-01-10T11:38:30;9.50;99.90
16643;DHT22;8435;52.184;5.406;2023-01-10T11:40:59;9.50;99.90
16643;DHT22;8435;52.184;5.406;2023-01-10T11:43:30;9.50;99.90
16643;DHT22;8435;52.184;5.406;2023-01-10T11:46:00;9.50;99.90
16643;DHT22;8435;52.184;5.406;2023-01-10T11:48:41;9.50;99.90
16643;DHT22;8435;52.184;5.406;2023-01-10T11:51:18;9.50;99.90
16643;DHT22;8435;52.184;5.406;2023-01-10T11:53:48;9.50;99.90
16643;DHT22;8435;52.184;5.406;2023-01-10T11:56:26;9.50;99.90
16643;DHT22;8435;52.184;5.406;2023-01-10T11:58:54;9.50;99.90
16643;DHT22;8435;52.184;5.406;2023-01-10T12:01:28;9.50;99.90
16643;DHT22;8435;52.184;5.406;2023-01-10T12:03:56;9.50;99.90
16643;DHT22;8435;52.184;5.406;2023-01-10T12:06:26;9.50;99.90
16643;DHT22;8435;52.184;5.406;2023-01-10T12:08:56;9.50;99.90
16643;DHT22;8435;52.184;5.406;2023-01-10T12:11:27;9.50;99.90
16643;DHT22;8435;52.184;5.406;2023-01-10T12:13:57;9.60;99.90
16643;DHT22;8435;52.184;5.406;2023-01-10T12:16:25;9.60;99.90
16643;DHT22;8435;52.184;5.406;2023-01-10T12:18:54;9.50;99.90
16643;DHT22;8435;52.184;5.406;2023-01-10T12:21:33;9.60;99.90
16643;DHT22;8435;52.184;5.406;2023-01-10T12:24:10;9.60;99.90
16643;DHT22;8435;52.184;5.406;2023-01-10T12:26:40;9.50;99.90
16643;DHT22;8435;52.184;5.406;2023-01-10T12:29:11;9.60;99.90
16643;DHT22;8435;52.184;5.406;2023-01-10T12:31:40;9.60;99.90
16643;DHT22;8435;52.184;5.406;2023-01-10T12:34:13;9.60;99.90
16643;DHT22;8435;52.184;5.406;2023-01-10T12:36:48;9.60;99.90
16643;DHT22;8435;52.184;5.406;2023-01-10T12:39:22;9.60;99.90
16643;DHT22;8435;52.184;5.406;2023-01-10T12:41:56;9.50;99.90
16643;DHT22;8435;52.184;5.406;2023-01-10T12:44:42;9.60;99.90
16643;DHT22;8435;52.184;5.406;2023-01-10T12:47:21;9.60;99.90
16643;DHT22;8435;52.184;5.406;2023-01-10T12:49:54;9.60;99.90
16643;DHT22;8435;52.184;5.406;2023-01-10T12:52:34;9.60;99.90
16643;DHT22;8435;52.184;5.406;2023-01-10T12:55:12;9.60;99.90
16643;DHT22;8435;52.184;5.406;2023-01-10T12:57:40;9.70;99.90
16643;DHT22;8435;52.184;5.406;2023-01-10T13:00:17;9.70;99.90
16643;DHT22;8435;52.184;5.406;2023-01-10T13:02:46;9.70;99.90
16643;DHT22;8435;52.184;5.406;2023-01-10T13:05:20;9.70;99.90
16643;DHT22;8435;52.184;5.406;2023-01-10T13:07:48;9.70;99.90
16643;DHT22;8435;52.184;5.406;2023-01-10T13:10:20;9.80;99.90
16643;DHT22;8435;52.184;5.406;2023-01-10T13:12:53;9.70;99.90
16643;DHT22;8435;52.184;5.406;2023-01-10T13:15:23;9.70;99.90
16643;DHT22;8435;52.184;5.406;2023-01-10T13:17:57;9.70;99.90
16643;DHT22;8435;52.184;5.406;2023-01-10T13:20:28;9.70;99.90
16643;DHT22;8435;52.184;5.406;2023-01-10T13:22:57;9.70;99.90
16643;DHT22;8435;52.184;5.406;2023-01-10T13:25:27;9.80;99.90
16643;DHT22;8435;52.184;5.406;2023-01-10T13:27:56;9.80;99.90
16643;DHT22;8435;52.184;5.406;2023-01-10T13:30:26;9.80;99.90
16643;DHT22;8435;52.184;5.406;2023-01-10T13:32:59;9.80;99.90
16643;DHT22;8435;52.184;5.406;2023-01-10T13:35:27;9.80;99.90
16643;DHT22;8435;52.184;5.406;2023-01-10T13:38:02;9.80;99.90
16643;DHT22;8435;52.184;5.406;2023-01-10T13:40:30;9.80;99.90
16643;DHT22;8435;52.184;5.406;2023-01-10T13:43:24;9.80;99.90
16643;DHT22;8435;52.184;5.406;2023-01-10T13:46:31;9.90;99.90
16643;DHT22;8435;52.184;5.406;2023-01-10T13:52:30;9.90;99.90
16643;DHT22;8435;52.184;5.406;2023-01-10T13:54:59;10.00;99.90
16643;DHT22;8435;52.184;5.406;2023-01-10T13:57:52;10.00;99.90
16643;DHT22;8435;52.184;5.406;2023-01-10T14:03:42;10.00;99.90
16643;DHT22;8435;52.184;5.406;2023-01-10T14:06:15;10.00;99.90
16643;DHT22;8435;52.184;5.406;2023-01-10T14:08:51;10.00;99.90
16643;DHT22;8435;52.184;5.406;2023-01-10T14:11:20;10.00;99.90
16643;DHT22;8435;52.184;5.406;2023-01-10T14:13:51;10.00;99.90
16643;DHT22;8435;52.184;5.406;2023-01-10T14:16:28;10.10;99.90
16643;DHT22;8435;52.184;5.406;2023-01-10T14:18:56;10.10;99.90
16643;DHT22;8435;52.184;5.406;2023-01-10T14:21:24;10.10;99.90
16643;DHT22;8435;52.184;5.406;2023-01-10T14:23:53;10.10;99.90
16643;DHT22;8435;52.184;5.406;2023-01-10T14:26:26;10.10;99.90
16643;DHT22;8435;52.184;5.406;2023-01-10T14:28:57;10.10;99.90
16643;DHT22;8435;52.184;5.406;2023-01-10T14:31:25;10.10;99.90
16643;DHT22;8435;52.184;5.406;2023-01-10T14:33:52;10.10;99.90
16643;DHT22;8435;52.184;5.406;2023-01-10T14:36:24;10.10;99.90
16643;DHT22;8435;52.184;5.406;2023-01-10T14:38:53;10.00;99.90
16643;DHT22;8435;52.184;5.406;2023-01-10T14:41:28;10.00;99.90
16643;DHT22;8435;52.184;5.406;2023-01-10T14:44:01;10.00;99.90
16643;DHT22;8435;52.184;5.406;2023-01-10T14:46:32;9.90;99.90
16643;DHT22;8435;52.184;5.406;2023-01-10T14:48:59;9.90;99.90
16643;DHT22;8435;52.184;5.406;2023-01-10T14:51:27;9.90;99.90
16643;DHT22;8435;52.184;5.406;2023-01-10T14:53:55;9.80;99.90
16643;DHT22;8435;52.184;5.406;2023-01-10T14:56:25;9.80;99.90
16643;DHT22;8435;52.184;5.406;2023-01-10T14:58:54;9.80;99.90
16643;DHT22;8435;52.184;5.406;2023-01-10T15:01:25;9.70;99.90
16643;DHT22;8435;52.184;5.406;2023-01-10T15:03:53;9.70;99.90
16643;DHT22;8435;52.184;5.406;2023-01-10T15:06:21;9.70;99.90
16643;DHT22;8435;52.184;5.406;2023-01-10T15:08:59;9.60;99.90
16643;DHT22;8435;52.184;5.406;2023-01-10T15:11:31;9.60;99.90
16643;DHT22;8435;52.184;5.406;2023-01-10T15:14:02;9.60;99.90
16643;DHT22;8435;52.184;5.406;2023-01-10T15:16:34;9.60;99.90
16643;DHT22;8435;52.184;5.406;2023-01-10T15:19:10;9.50;99.90
16643;DHT22;8435;52.184;5.406;2023-01-10T15:21:41;9.50;99.90
16643;DHT22;8435;52.184;5.406;2023-01-10T15:24:23;9.50;99.90
16643;DHT22;8435;52.184;5.406;2023-01-10T15:26:51;9.40;99.90
16643;DHT22;8435;52.184;5.406;2023-01-10T15:29:21;9.40;99.90
16643;DHT22;8435;52.184;5.406;2023-01-10T15:31:50;9.40;99.90
16643;DHT22;8435;52.184;5.406;2023-01-10T15:34:22;9.40;99.90
16643;DHT22;8435;52.184;5.406;2023-01-10T15:36:52;9.40;99.90
16643;DHT22;8435;52.184;5.406;2023-01-10T15:39:21;9.30;99.90
16643;DHT22;8435;52.184;5.406;2023-01-10T15:41:54;9.30;99.90
16643;DHT22;8435;52.184;5.406;2023-01-10T15:44:31;9.30;99.90
16643;DHT22;8435;52.184;5.406;2023-01-10T15:47:04;9.30;99.90
16643;DHT22;8435;52.184;5.406;2023-01-10T15:49:31;9.30;99.90
16643;DHT22;8435;52.184;5.406;2023-01-10T15:51:58;9.30;99.90
16643;DHT22;8435;52.184;5.406;2023-01-10T15:54:30;9.30;99.90
16643;DHT22;8435;52.184;5.406;2023-01-10T15:57:02;9.20;99.90
16643;DHT22;8435;52.184;5.406;2023-01-10T15:59:33;9.30;99.90
16643;DHT22;8435;52.184;5.406;2023-01-10T16:02:16;9.20;99.90
16643;DHT22;8435;52.184;5.406;2023-01-10T16:04:47;9.30;99.90
16643;DHT22;8435;52.184;5.406;2023-01-10T16:07:16;9.20;99.90
16643;DHT22;8435;52.184;5.406;2023-01-10T16:09:49;9.20;99.90
16643;DHT22;8435;52.184;5.406;2023-01-10T16:12:26;9.20;99.90
16643;DHT22;8435;52.184;5.406;2023-01-10T16:15:17;9.10;99.90
16643;DHT22;8435;52.184;5.406;2023-01-10T16:17:48;9.20;99.90
16643;DHT22;8435;52.184;5.406;2023-01-10T16:20:17;9.20;99.90
16643;DHT22;8435;52.184;5.406;2023-01-10T16:22:46;9.20;99.90
16643;DHT22;8435;52.184;5.406;2023-01-10T16:25:18;9.20;99.90
16643;DHT22;8435;52.184;5.406;2023-01-10T16:27:46;9.20;99.90
16643;DHT22;8435;52.184;5.406;2023-01-10T16:30:21;9.20;99.90
16643;DHT22;8435;52.184;5.406;2023-01-10T16:32:52;9.10;99.90
16643;DHT22;8435;52.184;5.406;2023-01-10T16:35:20;9.10;99.90
16643;DHT22;8435;52.184;5.406;2023-01-10T16:37:47;9.10;99.90